Dennis J. Pasentine — WDF2813 — position and weather

sailwx.info

Track history (hours):
 
Tides and Currents Weather Stations Pressure Air Temp Water Temp Dewpoint Dewpoint Depression Visibility Wind Speed Wind Dir Waves Ship Positions

Dennis J. Pasentine

Owner: Florida Marine Transporters, Inc., Mandeville, LA. More information available from US FCC via Universal Licensing System and Coast Guard Vessel Documentation Center.

Last reported at 2014-Oct-10 10:16 UTC. Time now 2014-Oct-24 14:42 UTC.
Position N 29°59' W 090°50'.
Warning: this ship's position is 14 days out of date.

Type: Other ship. MMSI: 367432180.

Date/timePositionNaut miles runAvg speedWind from/ knotsBaromVisibWave heightAir tempDewpointWater temp
2014-Oct-10 10:16N 29°59' W 090°50'12 1.8
2014-Oct-10 03:22N 30°02' W 090°36'0 0.1
2014-Oct-10 02:25N 30°03' W 090°36'0 0.1
2014-Oct-09 22:31N 30°03' W 090°36'0 0.0
2014-Oct-09 14:15N 30°03' W 090°36'0 0.2
2014-Oct-09 12:32N 30°03' W 090°36'0 0.0
2014-Oct-09 11:32N 30°03' W 090°36'0 0.0
2014-Oct-09 09:26N 30°03' W 090°36'0 0.0
2014-Oct-09 08:32N 30°03' W 090°36'0 0.0
2014-Oct-09 07:32N 30°03' W 090°36'0 0.0
2014-Oct-09 06:32N 30°03' W 090°36'0 0.0
2014-Oct-09 05:32N 30°03' W 090°36'0 0.0
2014-Oct-09 04:32N 30°03' W 090°36'0 0.0
2014-Oct-09 03:32N 30°03' W 090°36'0 0.0
2014-Oct-09 02:29N 30°03' W 090°36'0 0.0
2014-Oct-09 01:32N 30°03' W 090°36'0 0.0
2014-Oct-09 00:32N 30°03' W 090°36'0 0.0
2014-Oct-08 23:32N 30°03' W 090°36'0 0.0
2014-Oct-08 22:29N 30°03' W 090°36'1 0.5
2014-Oct-08 21:20N 30°03' W 090°35'0 0.0
2014-Oct-08 20:26N 30°03' W 090°35'0 0.1
2014-Oct-08 19:32N 30°03' W 090°35'0 0.1
2014-Oct-08 18:33N 30°03' W 090°35'0 0.0
2014-Oct-08 17:27N 30°03' W 090°35'0 0.0
2014-Oct-08 16:33N 30°03' W 090°35'0 0.0
2014-Oct-08 15:32N 30°03' W 090°35'0 0.0
2014-Oct-08 14:29N 30°03' W 090°35'0 0.0
2014-Oct-08 13:32N 30°03' W 090°35'0 0.0
2014-Oct-08 12:32N 30°03' W 090°35'0 0.0
2014-Oct-08 11:32N 30°03' W 090°35'0 0.0
2014-Oct-08 10:32N 30°03' W 090°35'0 0.0
2014-Oct-08 09:32N 30°03' W 090°35'0 0.0
2014-Oct-08 08:32N 30°03' W 090°35'0 0.0
2014-Oct-08 07:29N 30°03' W 090°35'0 0.0
2014-Oct-08 06:32N 30°03' W 090°35'1 0.5
2014-Oct-08 05:31N 30°03' W 090°36'0 0.3
2014-Oct-08 04:32N 30°03' W 090°36'0 0.0
2014-Oct-08 03:32N 30°03' W 090°36'0 0.0
2014-Oct-07 12:26N 30°03' W 090°36'0 0.0
2014-Oct-07 11:32N 30°03' W 090°36'0 0.2
2014-Oct-07 10:31N 30°03' W 090°35'0 0.0
2014-Oct-07 09:28N 30°03' W 090°35'0 0.0
2014-Oct-07 08:31N 30°03' W 090°35'0 0.0
2014-Oct-07 07:31N 30°03' W 090°35'0 0.0
2014-Oct-07 06:31N 30°03' W 090°35'0 0.0
2014-Oct-07 05:25N 30°03' W 090°35'0 0.0
2014-Oct-07 04:31N 30°03' W 090°35'0 0.0
2014-Oct-07 03:31N 30°03' W 090°35'0 0.0
2014-Oct-07 02:31N 30°03' W 090°35'0 0.0
2014-Oct-07 01:31N 30°03' W 090°35'1 0.6
2014-Oct-07 00:30N 30°03' W 090°36'0 0.2
2014-Oct-06 23:33N 30°03' W 090°36'0 0.0
2014-Oct-06 12:12N 30°03' W 090°36'0 0.0
2014-Oct-06 11:24N 30°03' W 090°36'0 0.0
2014-Oct-06 10:33N 30°03' W 090°36'0 0.1
2014-Oct-06 09:33N 30°03' W 090°36'1 0.6
2014-Oct-06 08:32N 30°03' W 090°35'0 0.0
2014-Oct-06 07:31N 30°03' W 090°35'0 0.1
2014-Oct-06 06:31N 30°03' W 090°35'0 0.0
2014-Oct-06 05:33N 30°03' W 090°35'1 0.5
2014-Oct-06 04:27N 30°03' W 090°36'0 0.0
2014-Oct-06 03:30N 30°03' W 090°36'0 0.0
2014-Oct-06 02:33N 30°03' W 090°36'0 0.0
2014-Oct-06 01:33N 30°03' W 090°36'0 0.0
2014-Oct-06 00:33N 30°03' W 090°36'0 0.0
2014-Oct-05 23:33N 30°03' W 090°36'0 0.0
2014-Oct-05 22:33N 30°03' W 090°36'0 0.0
2014-Oct-05 21:30N 30°03' W 090°36'0 0.0
2014-Oct-05 20:33N 30°03' W 090°36'0 0.0
2014-Oct-05 19:33N 30°03' W 090°36'0 0.0
2014-Oct-05 18:33N 30°03' W 090°36'0 0.0
2014-Oct-05 17:33N 30°03' W 090°36'0 0.0
2014-Oct-05 16:33N 30°03' W 090°36'0 0.0
2014-Oct-05 15:33N 30°03' W 090°36'0 0.0
2014-Oct-05 14:33N 30°03' W 090°36'0 0.2
2014-Oct-05 13:33N 30°03' W 090°36'0 0.4
2014-Oct-05 12:33N 30°03' W 090°35'0 0.2
2014-Oct-05 11:32N 30°03' W 090°36'3 3.6
2014-Oct-05 10:33N 30°03' W 090°40'7 6.8
2014-Oct-05 09:31N 30°00' W 090°47'  
Track history (hours):
 
Tides and Currents Weather Stations Pressure Air Temp Water Temp Dewpoint Dewpoint Depression Visibility Wind Speed Wind Dir Waves Ship Positions

Dennis J. Pasentine

Owner: Florida Marine Transporters, Inc., Mandeville, LA. More information available from US FCC via Universal Licensing System and Coast Guard Vessel Documentation Center.

Last reported at 2014-Oct-10 10:16 UTC. Time now 2014-Oct-24 14:42 UTC.
Position N 29°59' W 090°50'.
Warning: this ship's position is 14 days out of date.

Type: Other ship. MMSI: 367432180.

Date/timePositionNaut miles runAvg speedWind from/ knotsBaromVisibWave heightAir tempDewpointWater temp
2014-Oct-10 10:16N 29°59' W 090°50'12 1.8
2014-Oct-10 03:22N 30°02' W 090°36'0 0.1
2014-Oct-10 02:25N 30°03' W 090°36'0 0.1
2014-Oct-09 22:31N 30°03' W 090°36'0 0.0
2014-Oct-09 14:15N 30°03' W 090°36'0 0.2
2014-Oct-09 12:32N 30°03' W 090°36'0 0.0
2014-Oct-09 11:32N 30°03' W 090°36'0 0.0
2014-Oct-09 09:26N 30°03' W 090°36'0 0.0
2014-Oct-09 08:32N 30°03' W 090°36'0 0.0
2014-Oct-09 07:32N 30°03' W 090°36'0 0.0
2014-Oct-09 06:32N 30°03' W 090°36'0 0.0
2014-Oct-09 05:32N 30°03' W 090°36'0 0.0
2014-Oct-09 04:32N 30°03' W 090°36'0 0.0
2014-Oct-09 03:32N 30°03' W 090°36'0 0.0
2014-Oct-09 02:29N 30°03' W 090°36'0 0.0
2014-Oct-09 01:32N 30°03' W 090°36'0 0.0
2014-Oct-09 00:32N 30°03' W 090°36'0 0.0
2014-Oct-08 23:32N 30°03' W 090°36'0 0.0
2014-Oct-08 22:29N 30°03' W 090°36'1 0.5
2014-Oct-08 21:20N 30°03' W 090°35'0 0.0
2014-Oct-08 20:26N 30°03' W 090°35'0 0.1
2014-Oct-08 19:32N 30°03' W 090°35'0 0.1
2014-Oct-08 18:33N 30°03' W 090°35'0 0.0
2014-Oct-08 17:27N 30°03' W 090°35'0 0.0
2014-Oct-08 16:33N 30°03' W 090°35'0 0.0
2014-Oct-08 15:32N 30°03' W 090°35'0 0.0
2014-Oct-08 14:29N 30°03' W 090°35'0 0.0
2014-Oct-08 13:32N 30°03' W 090°35'0 0.0
2014-Oct-08 12:32N 30°03' W 090°35'0 0.0
2014-Oct-08 11:32N 30°03' W 090°35'0 0.0
2014-Oct-08 10:32N 30°03' W 090°35'0 0.0
2014-Oct-08 09:32N 30°03' W 090°35'0 0.0
2014-Oct-08 08:32N 30°03' W 090°35'0 0.0
2014-Oct-08 07:29N 30°03' W 090°35'0 0.0
2014-Oct-08 06:32N 30°03' W 090°35'1 0.5
2014-Oct-08 05:31N 30°03' W 090°36'0 0.3
2014-Oct-08 04:32N 30°03' W 090°36'0 0.0
2014-Oct-08 03:32N 30°03' W 090°36'0 0.0
2014-Oct-07 12:26N 30°03' W 090°36'0 0.0
2014-Oct-07 11:32N 30°03' W 090°36'0 0.2
2014-Oct-07 10:31N 30°03' W 090°35'0 0.0
2014-Oct-07 09:28N 30°03' W 090°35'0 0.0
2014-Oct-07 08:31N 30°03' W 090°35'0 0.0
2014-Oct-07 07:31N 30°03' W 090°35'0 0.0
2014-Oct-07 06:31N 30°03' W 090°35'0 0.0
2014-Oct-07 05:25N 30°03' W 090°35'0 0.0
2014-Oct-07 04:31N 30°03' W 090°35'0 0.0
2014-Oct-07 03:31N 30°03' W 090°35'0 0.0
2014-Oct-07 02:31N 30°03' W 090°35'0 0.0
2014-Oct-07 01:31N 30°03' W 090°35'1 0.6
2014-Oct-07 00:30N 30°03' W 090°36'0 0.2
2014-Oct-06 23:33N 30°03' W 090°36'0 0.0
2014-Oct-06 12:12N 30°03' W 090°36'0 0.0
2014-Oct-06 11:24N 30°03' W 090°36'0 0.0
2014-Oct-06 10:33N 30°03' W 090°36'0 0.1
2014-Oct-06 09:33N 30°03' W 090°36'1 0.6
2014-Oct-06 08:32N 30°03' W 090°35'0 0.0
2014-Oct-06 07:31N 30°03' W 090°35'0 0.1
2014-Oct-06 06:31N 30°03' W 090°35'0 0.0
2014-Oct-06 05:33N 30°03' W 090°35'1 0.5
2014-Oct-06 04:27N 30°03' W 090°36'0 0.0
2014-Oct-06 03:30N 30°03' W 090°36'0 0.0
2014-Oct-06 02:33N 30°03' W 090°36'0 0.0
2014-Oct-06 01:33N 30°03' W 090°36'0 0.0
2014-Oct-06 00:33N 30°03' W 090°36'0 0.0
2014-Oct-05 23:33N 30°03' W 090°36'0 0.0
2014-Oct-05 22:33N 30°03' W 090°36'0 0.0
2014-Oct-05 21:30N 30°03' W 090°36'0 0.0
2014-Oct-05 20:33N 30°03' W 090°36'0 0.0
2014-Oct-05 19:33N 30°03' W 090°36'0 0.0
2014-Oct-05 18:33N 30°03' W 090°36'0 0.0
2014-Oct-05 17:33N 30°03' W 090°36'0 0.0
2014-Oct-05 16:33N 30°03' W 090°36'0 0.0
2014-Oct-05 15:33N 30°03' W 090°36'0 0.0
2014-Oct-05 14:33N 30°03' W 090°36'0 0.2
2014-Oct-05 13:33N 30°03' W 090°36'0 0.4
2014-Oct-05 12:33N 30°03' W 090°35'0 0.2
2014-Oct-05 11:32N 30°03' W 090°36'3 3.6
2014-Oct-05 10:33N 30°03' W 090°40'7 6.8
2014-Oct-05 09:31N 30°00' W 090°47'  

Dump ship's entire track history